createdAt,value
2023-03-22T00:00:15.412Z,11.15
2023-03-22T00:00:50.277Z,11.15
2023-03-22T00:01:23.986Z,11.16
2023-03-22T00:01:56.179Z,11.17
2023-03-22T00:02:31.029Z,11.17
2023-03-22T00:03:03.579Z,11.16
2023-03-22T00:03:35.942Z,11.17
2023-03-22T00:04:13.464Z,11.18
2023-03-22T00:04:45.836Z,11.16
2023-03-22T00:05:17.946Z,11.17
2023-03-22T00:05:50.447Z,11.16
2023-03-22T00:06:25.275Z,11.16
2023-03-22T00:06:57.450Z,11.15
2023-03-22T00:07:29.566Z,11.14
2023-03-22T00:08:05.779Z,11.13
2023-03-22T00:08:38.425Z,11.11
2023-03-22T00:09:10.912Z,11.10
2023-03-22T00:09:45.939Z,11.09
2023-03-22T00:10:18.246Z,11.08
2023-03-22T00:10:50.527Z,11.08
2023-03-22T00:11:26.980Z,11.08
2023-03-22T00:11:59.160Z,11.06
2023-03-22T00:12:31.718Z,11.06
2023-03-22T00:13:07.908Z,11.07
2023-03-22T00:13:40.114Z,11.06
2023-03-22T00:14:12.436Z,11.04
2023-03-22T00:14:47.197Z,11.05
2023-03-22T00:15:19.913Z,11.05
2023-03-22T00:15:52.137Z,11.03
2023-03-22T00:16:27.274Z,11.03
2023-03-22T00:16:59.398Z,11.03
2023-03-22T00:17:32.973Z,11.03
2023-03-22T00:18:08.392Z,11.03
2023-03-22T00:18:41.396Z,11.02
2023-03-22T00:19:19.344Z,11.02
2023-03-22T00:19:54.527Z,11.03
2023-03-22T00:20:30.630Z,11.04
2023-03-22T00:21:05.671Z,11.04
2023-03-22T00:21:37.904Z,11.00
2023-03-22T00:22:11.616Z,10.98
2023-03-22T00:22:46.618Z,10.94
2023-03-22T00:23:18.965Z,10.86
2023-03-22T00:23:53.790Z,10.84
2023-03-22T00:24:26.059Z,10.76
2023-03-22T00:24:58.173Z,10.71
2023-03-22T00:25:33.432Z,10.67
2023-03-22T00:26:06.228Z,10.62
2023-03-22T00:26:38.355Z,10.60
2023-03-22T00:27:13.749Z,10.61
2023-03-22T00:27:46.927Z,10.63
2023-03-22T00:28:19.539Z,10.65
2023-03-22T00:28:54.351Z,10.66
2023-03-22T00:29:26.523Z,10.66
2023-03-22T00:29:58.771Z,10.66
2023-03-22T00:30:31.022Z,10.67
2023-03-22T00:31:06.721Z,10.69
2023-03-22T00:31:39.046Z,10.67
2023-03-22T00:32:11.394Z,10.68
2023-03-22T00:32:46.134Z,10.67
2023-03-22T00:33:19.196Z,10.67
2023-03-22T00:33:51.300Z,10.68
2023-03-22T00:34:28.764Z,10.70
2023-03-22T00:35:01.967Z,10.67
2023-03-22T00:35:34.246Z,10.65
2023-03-22T00:36:11.669Z,10.64
2023-03-22T00:36:43.860Z,10.59
2023-03-22T00:37:16.551Z,10.56
2023-03-22T00:37:51.736Z,10.55
2023-03-22T00:38:35.957Z,10.53
2023-03-22T00:39:16.472Z,10.51
2023-03-22T00:39:48.789Z,10.52
2023-03-22T00:40:21.111Z,10.52
2023-03-22T00:40:57.305Z,10.52
2023-03-22T00:41:29.384Z,10.51
2023-03-22T00:42:01.509Z,10.48
2023-03-22T00:42:36.448Z,10.46
2023-03-22T00:43:08.805Z,10.43
2023-03-22T00:43:41.642Z,10.41
2023-03-22T00:44:16.476Z,10.38
2023-03-22T00:44:50.235Z,10.35
2023-03-22T00:45:22.415Z,10.31
2023-03-22T00:45:57.191Z,10.28
2023-03-22T00:46:29.411Z,10.28
2023-03-22T00:47:01.672Z,10.29
2023-03-22T00:47:36.590Z,10.29
2023-03-22T00:48:10.053Z,10.29
2023-03-22T00:48:46.702Z,10.30
2023-03-22T00:49:19.165Z,10.30
2023-03-22T00:49:54.105Z,10.31
2023-03-22T00:50:28.976Z,10.34
2023-03-22T00:51:01.369Z,10.36
2023-03-22T00:51:36.078Z,10.38
2023-03-22T00:52:10.903Z,10.40
2023-03-22T00:52:42.979Z,10.45
2023-03-22T00:53:15.502Z,10.45
2023-03-22T00:53:52.500Z,10.47
2023-03-22T00:54:24.881Z,10.49
2023-03-22T00:54:57.723Z,10.50
2023-03-22T00:55:30.103Z,10.53
2023-03-22T00:56:05.222Z,10.54
2023-03-22T00:56:45.956Z,10.51
2023-03-22T00:57:19.538Z,10.54
2023-03-22T00:57:54.474Z,10.54
2023-03-22T00:58:26.594Z,10.53
2023-03-22T00:58:58.683Z,10.53
2023-03-22T00:59:37.764Z,10.55
2023-03-22T01:00:14.075Z,10.53
2023-03-22T01:01:05.857Z,10.49
2023-03-22T01:01:40.859Z,10.47
2023-03-22T01:02:13.548Z,10.44
2023-03-22T01:02:47.397Z,10.42
2023-03-22T01:03:35.299Z,10.37
2023-03-22T01:04:07.487Z,10.32
2023-03-22T01:04:46.489Z,10.32
2023-03-22T01:05:24.141Z,10.31
2023-03-22T01:05:56.223Z,10.31
2023-03-22T01:06:28.329Z,10.30
2023-03-22T01:07:07.760Z,10.31
2023-03-22T01:07:42.097Z,10.26
2023-03-22T01:08:15.124Z,10.24
2023-03-22T01:08:51.076Z,10.23
2023-03-22T01:09:23.952Z,10.19
2023-03-22T01:09:56.078Z,10.20
2023-03-22T01:10:31.215Z,10.21
2023-03-22T01:11:03.539Z,10.22
2023-03-22T01:11:35.740Z,10.25
2023-03-22T01:12:10.730Z,10.26
2023-03-22T01:12:42.840Z,10.27
2023-03-22T01:13:17.513Z,10.24
2023-03-22T01:13:52.985Z,10.21
2023-03-22T01:14:25.934Z,10.20
2023-03-22T01:14:58.093Z,10.18
2023-03-22T01:15:30.678Z,10.17
2023-03-22T01:16:05.792Z,10.17
2023-03-22T01:16:38.959Z,10.13
2023-03-22T01:17:11.740Z,10.10
2023-03-22T01:17:46.474Z,10.09
2023-03-22T01:18:18.959Z,10.09
2023-03-22T01:18:53.756Z,10.08
2023-03-22T01:19:27.591Z,10.08
2023-03-22T01:19:59.673Z,10.08
2023-03-22T01:20:37.886Z,10.09
2023-03-22T01:21:11.082Z,10.07
2023-03-22T01:21:43.229Z,10.11
2023-03-22T01:22:17.954Z,10.16
2023-03-22T01:22:50.273Z,10.17
2023-03-22T01:23:22.445Z,10.16
2023-03-22T01:23:57.140Z,10.17
2023-03-22T01:24:29.364Z,10.17
2023-03-22T01:25:01.711Z,10.21
2023-03-22T01:25:36.456Z,10.23
2023-03-22T01:26:08.575Z,10.21
2023-03-22T01:26:41.827Z,10.20
2023-03-22T01:27:16.620Z,10.18
2023-03-22T01:27:48.910Z,10.16
2023-03-22T01:28:21.007Z,10.15
2023-03-22T01:28:55.710Z,10.16
2023-03-22T01:29:27.848Z,10.17
2023-03-22T01:30:00.129Z,10.18
2023-03-22T01:30:35.191Z,10.19
2023-03-22T01:31:07.991Z,10.19
2023-03-22T01:31:40.117Z,10.19
2023-03-22T01:32:14.823Z,10.18
2023-03-22T01:32:47.024Z,10.17
2023-03-22T01:33:20.068Z,10.17
2023-03-22T01:33:54.847Z,10.17
2023-03-22T01:34:28.338Z,10.16
2023-03-22T01:35:00.948Z,10.16
2023-03-22T01:35:42.037Z,10.16
2023-03-22T01:36:15.690Z,10.13
2023-03-22T01:36:48.052Z,10.12
2023-03-22T01:37:25.553Z,10.12
2023-03-22T01:37:58.250Z,10.10
2023-03-22T01:38:30.890Z,10.11
2023-03-22T01:39:07.556Z,10.11
2023-03-22T01:39:40.897Z,10.11
2023-03-22T01:40:15.991Z,10.10
2023-03-22T01:40:50.793Z,10.10
2023-03-22T01:41:23.212Z,10.10
2023-03-22T01:41:55.641Z,10.10
2023-03-22T01:42:31.121Z,10.10
2023-03-22T01:43:12.091Z,10.09
2023-03-22T01:43:46.835Z,10.08
2023-03-22T01:44:20.936Z,10.09
2023-03-22T01:45:32.341Z,10.05
2023-03-22T01:46:07.007Z,9.94
2023-03-22T01:46:39.595Z,9.95
2023-03-22T01:47:12.025Z,10.01
2023-03-22T01:47:48.404Z,10.02
2023-03-22T01:48:29.034Z,10.04
2023-03-22T01:49:03.404Z,10.04
2023-03-22T01:49:35.987Z,10.05
2023-03-22T01:50:12.191Z,10.07
2023-03-22T01:50:56.256Z,10.08
2023-03-22T01:51:29.956Z,10.06
2023-03-22T01:52:27.173Z,10.03
2023-03-22T01:53:08.913Z,10.03
2023-03-22T01:53:45.807Z,10.04
2023-03-22T01:54:27.427Z,10.06
2023-03-22T01:54:59.764Z,10.04
2023-03-22T01:55:48.597Z,10.02
2023-03-22T01:56:35.417Z,10.03
2023-03-22T01:57:08.067Z,10.02
2023-03-22T01:57:45.758Z,10.03
2023-03-22T01:58:25.634Z,10.02
2023-03-22T01:59:03.947Z,10.03
2023-03-22T01:59:52.631Z,10.01
2023-03-22T02:00:49.730Z,9.99
2023-03-22T02:02:00.275Z,9.96
2023-03-22T02:02:36.386Z,10.00
2023-03-22T02:03:25.073Z,10.02
2023-03-22T02:04:03.659Z,10.03
2023-03-22T02:04:39.169Z,10.04
2023-03-22T02:05:13.314Z,10.06
2023-03-22T02:05:51.302Z,10.09
2023-03-22T02:06:27.026Z,10.09
2023-03-22T02:07:15.750Z,10.10
2023-03-22T02:07:52.217Z,10.09
2023-03-22T02:08:25.283Z,10.11
2023-03-22T02:09:08.362Z,10.11
2023-03-22T02:09:41.591Z,10.12
2023-03-22T02:10:16.965Z,10.13
2023-03-22T02:10:59.971Z,10.12
2023-03-22T02:11:35.568Z,10.13
2023-03-22T02:12:25.002Z,10.12
2023-03-22T02:13:14.267Z,10.11
2023-03-22T02:14:11.651Z,10.06
2023-03-22T02:15:10.938Z,9.99
2023-03-22T02:16:18.773Z,10.00
2023-03-22T02:17:09.771Z,10.00
2023-03-22T02:18:06.918Z,10.00
2023-03-22T02:18:54.711Z,10.02
2023-03-22T02:19:59.684Z,10.00
2023-03-22T02:21:05.398Z,9.99
2023-03-22T02:22:10.064Z,9.96
2023-03-22T02:23:23.129Z,9.92
2023-03-22T02:24:28.163Z,9.89
2023-03-22T02:25:27.560Z,9.87
2023-03-22T02:26:41.637Z,9.86
2023-03-22T02:27:28.555Z,9.82
2023-03-22T02:28:21.574Z,9.81
2023-03-22T02:29:01.230Z,9.82
2023-03-22T02:29:45.118Z,9.84
2023-03-22T02:30:51.347Z,9.82
2023-03-22T02:32:07.717Z,9.77
2023-03-22T02:33:05.283Z,9.73
2023-03-22T02:34:02.376Z,9.72
2023-03-22T02:35:10.870Z,9.70
2023-03-22T02:36:14.096Z,9.66
2023-03-22T02:37:07.563Z,9.63
2023-03-22T02:38:08.107Z,9.64
2023-03-22T02:39:01.679Z,9.57
2023-03-22T02:39:45.946Z,9.55
2023-03-22T02:40:28.090Z,9.54
2023-03-22T02:41:09.238Z,9.55
2023-03-22T02:41:54.626Z,9.54
2023-03-22T02:42:41.241Z,9.53
2023-03-22T02:43:26.271Z,9.54
2023-03-22T02:44:05.548Z,9.54
2023-03-22T02:44:45.509Z,9.54
2023-03-22T02:45:24.844Z,9.55
2023-03-22T02:46:06.629Z,9.55
2023-03-22T02:46:47.061Z,9.57
2023-03-22T02:47:25.282Z,9.56
2023-03-22T02:48:08.757Z,9.59
2023-03-22T02:48:51.064Z,9.59
2023-03-22T02:49:32.234Z,9.59
2023-03-22T02:50:12.783Z,9.60
2023-03-22T02:50:50.562Z,9.60
2023-03-22T02:51:29.821Z,9.62
2023-03-22T02:52:10.287Z,9.62
2023-03-22T02:52:47.298Z,9.62
2023-03-22T02:53:25.724Z,9.62
2023-03-22T02:54:06.712Z,9.60
2023-03-22T02:54:44.755Z,9.59
2023-03-22T02:55:25.393Z,9.60
2023-03-22T02:56:02.446Z,9.60
2023-03-22T02:56:41.245Z,9.58
2023-03-22T02:57:23.719Z,9.57
2023-03-22T02:57:58.585Z,9.58
2023-03-22T02:58:37.096Z,9.58
2023-03-22T02:59:14.880Z,9.57
2023-03-22T02:59:48.887Z,9.57
2023-03-22T03:00:21.194Z,9.57
2023-03-22T03:01:01.921Z,9.57
2023-03-22T03:01:38.510Z,9.57
2023-03-22T03:02:18.430Z,9.56
2023-03-22T03:02:57.829Z,9.56
2023-03-22T03:03:32.255Z,9.56
2023-03-22T03:04:09.048Z,9.60
2023-03-22T03:04:49.114Z,9.62
2023-03-22T03:05:24.734Z,9.63
2023-03-22T03:06:02.746Z,9.65
2023-03-22T03:06:46.324Z,9.65
2023-03-22T03:07:23.548Z,9.66
2023-03-22T03:08:00.850Z,9.68
2023-03-22T03:08:37.290Z,9.68
2023-03-22T03:09:14.059Z,9.71
2023-03-22T03:09:47.289Z,9.71
2023-03-22T03:10:23.430Z,9.73
2023-03-22T03:10:55.641Z,9.74
2023-03-22T03:11:27.895Z,9.76
2023-03-22T03:12:03.138Z,9.76
2023-03-22T03:12:35.990Z,9.77
2023-03-22T03:13:12.093Z,9.78
2023-03-22T03:13:47.773Z,9.79
2023-03-22T03:14:24.931Z,9.79
2023-03-22T03:14:57.915Z,9.79
2023-03-22T03:15:31.291Z,9.79
2023-03-22T03:16:08.976Z,9.80
2023-03-22T03:16:41.259Z,9.79
2023-03-22T03:17:29.941Z,9.80
2023-03-22T03:18:27.561Z,9.76
2023-03-22T03:19:03.974Z,9.73
2023-03-22T03:19:44.736Z,9.73
2023-03-22T03:20:30.477Z,9.74
2023-03-22T03:21:09.833Z,9.74
2023-03-22T03:21:54.242Z,9.73
2023-03-22T03:22:41.888Z,9.72
2023-03-22T03:23:26.360Z,9.72
2023-03-22T03:24:10.444Z,9.73
2023-03-22T03:24:52.802Z,9.72
2023-03-22T03:25:31.977Z,9.73
2023-03-22T03:26:15.080Z,9.72
2023-03-22T03:26:54.683Z,9.70
2023-03-22T03:27:32.882Z,9.70
2023-03-22T03:28:14.811Z,9.72
2023-03-22T03:28:51.579Z,9.71
2023-03-22T03:29:36.332Z,9.72
2023-03-22T03:30:13.551Z,9.72
2023-03-22T03:30:56.396Z,9.72
2023-03-22T03:31:33.536Z,9.66
2023-03-22T03:32:11.245Z,9.68
2023-03-22T03:32:49.869Z,9.72
2023-03-22T03:33:26.163Z,9.73
2023-03-22T03:34:09.424Z,9.74
2023-03-22T03:34:49.636Z,9.73
2023-03-22T03:35:23.126Z,9.67
2023-03-22T03:36:02.822Z,9.70
2023-03-22T03:36:38.046Z,9.70
2023-03-22T03:37:14.169Z,9.72
2023-03-22T03:37:53.893Z,9.75
2023-03-22T03:38:30.042Z,9.74
2023-03-22T03:39:07.956Z,9.76
2023-03-22T03:39:47.306Z,9.77
2023-03-22T03:40:28.168Z,9.77
2023-03-22T03:41:06.648Z,9.76
2023-03-22T03:41:44.354Z,9.77
2023-03-22T03:42:17.986Z,9.77
2023-03-22T03:42:54.613Z,9.78
2023-03-22T03:43:27.270Z,9.78
2023-03-22T03:44:00.217Z,9.79
2023-03-22T03:44:38.681Z,9.81
2023-03-22T03:45:11.623Z,9.82
2023-03-22T03:45:45.084Z,9.81
2023-03-22T03:46:20.170Z,9.83
2023-03-22T03:46:54.148Z,9.84
2023-03-22T03:47:29.103Z,9.84
2023-03-22T03:48:08.884Z,9.84
2023-03-22T03:48:47.376Z,9.83
2023-03-22T03:49:22.316Z,9.85
2023-03-22T03:49:57.894Z,9.86
2023-03-22T03:50:30.509Z,9.86
2023-03-22T03:51:03.288Z,9.87
2023-03-22T03:51:50.351Z,9.87
2023-03-22T03:52:24.619Z,9.86
2023-03-22T03:52:57.143Z,9.87
2023-03-22T03:53:30.140Z,9.88
2023-03-22T03:54:04.853Z,9.90
2023-03-22T03:54:37.061Z,9.90
2023-03-22T03:55:11.417Z,9.89
2023-03-22T03:55:48.850Z,9.89
2023-03-22T03:56:21.629Z,9.87
2023-03-22T03:56:55.107Z,9.86
2023-03-22T03:57:29.979Z,9.84
2023-03-22T03:58:02.287Z,9.81
2023-03-22T03:58:34.488Z,9.82
2023-03-22T03:59:09.294Z,9.80
2023-03-22T03:59:41.544Z,9.79
2023-03-22T04:00:25.296Z,9.73
2023-03-22T04:01:32.207Z,9.63
2023-03-22T04:02:19.375Z,9.60
2023-03-22T04:02:52.430Z,9.64
2023-03-22T04:03:46.737Z,9.63
2023-03-22T04:04:41.778Z,9.63
2023-03-22T04:05:14.456Z,9.66
2023-03-22T04:05:49.262Z,9.69
2023-03-22T04:06:21.670Z,9.71
2023-03-22T04:07:03.141Z,9.72
2023-03-22T04:07:36.233Z,9.74
2023-03-22T04:08:08.816Z,9.76
2023-03-22T04:08:45.678Z,9.77
2023-03-22T04:09:20.411Z,9.78
2023-03-22T04:09:57.041Z,9.79
2023-03-22T04:10:37.241Z,9.80
2023-03-22T04:11:12.407Z,9.82
2023-03-22T04:11:45.641Z,9.81
2023-03-22T04:12:21.824Z,9.81
2023-03-22T04:13:14.022Z,9.79
2023-03-22T04:13:49.055Z,9.80
2023-03-22T04:14:26.387Z,9.80
2023-03-22T04:15:00.809Z,9.81
2023-03-22T04:15:37.178Z,9.83
2023-03-22T04:16:12.680Z,9.83
2023-03-22T04:16:45.023Z,9.85
2023-03-22T04:17:21.712Z,9.85
2023-03-22T04:17:54.033Z,9.86
2023-03-22T04:18:29.824Z,9.87
2023-03-22T04:19:06.964Z,9.88
2023-03-22T04:19:39.917Z,9.88
2023-03-22T04:20:13.958Z,9.89
2023-03-22T04:20:49.603Z,9.90
2023-03-22T04:21:22.960Z,9.91
2023-03-22T04:22:02.095Z,9.89
2023-03-22T04:22:38.869Z,9.89
2023-03-22T04:23:11.159Z,9.91
2023-03-22T04:23:46.765Z,9.93
2023-03-22T04:24:21.895Z,9.93
2023-03-22T04:24:56.274Z,9.93
2023-03-22T04:25:34.000Z,9.93
2023-03-22T04:26:19.213Z,9.93
2023-03-22T04:27:00.833Z,9.93
2023-03-22T04:27:37.714Z,9.93
2023-03-22T04:28:17.009Z,9.95
2023-03-22T04:28:49.152Z,9.96
2023-03-22T04:29:23.054Z,9.98
2023-03-22T04:30:02.196Z,9.98
2023-03-22T04:30:54.492Z,9.94
2023-03-22T04:31:53.717Z,9.93
2023-03-22T04:32:29.254Z,9.94
2023-03-22T04:33:07.014Z,9.97
2023-03-22T04:34:05.681Z,9.94
2023-03-22T04:34:53.904Z,9.91
2023-03-22T04:35:29.408Z,9.95
2023-03-22T04:36:04.114Z,9.96
2023-03-22T04:36:42.549Z,9.97
2023-03-22T04:37:32.215Z,9.96
2023-03-22T04:38:18.404Z,9.95
2023-03-22T04:38:51.740Z,9.98
2023-03-22T04:39:30.092Z,9.98
2023-03-22T04:40:22.515Z,9.96
2023-03-22T04:41:10.266Z,9.97
2023-03-22T04:41:49.993Z,9.99
2023-03-22T04:42:22.224Z,10.00
2023-03-22T04:43:04.331Z,10.01
2023-03-22T04:43:57.827Z,10.00
2023-03-22T04:44:30.332Z,10.03
2023-03-22T04:45:06.647Z,10.02
2023-03-22T04:45:40.037Z,10.04
2023-03-22T04:46:12.796Z,10.07
2023-03-22T04:46:54.354Z,10.06
2023-03-22T04:47:26.714Z,10.09
2023-03-22T04:47:59.210Z,10.10
2023-03-22T04:48:35.251Z,10.10
2023-03-22T04:49:08.757Z,10.11
2023-03-22T04:49:44.369Z,10.11
2023-03-22T04:50:20.133Z,10.13
2023-03-22T04:50:57.517Z,10.11
2023-03-22T04:51:32.357Z,10.12
2023-03-22T04:52:21.561Z,10.11
2023-03-22T04:52:58.539Z,10.11
2023-03-22T04:53:31.516Z,10.12
2023-03-22T04:54:10.751Z,10.12
2023-03-22T04:54:45.897Z,10.12
2023-03-22T04:55:18.383Z,10.13
2023-03-22T04:55:53.780Z,10.14
2023-03-22T04:56:27.181Z,10.16
2023-03-22T04:57:02.249Z,10.16
2023-03-22T04:57:41.418Z,10.15
2023-03-22T04:58:13.533Z,10.15
2023-03-22T04:58:46.218Z,10.16
2023-03-22T04:59:22.020Z,10.16
2023-03-22T04:59:55.069Z,10.14
2023-03-22T05:00:30.245Z,10.15
2023-03-22T05:01:06.841Z,10.13
2023-03-22T05:01:42.695Z,10.14
2023-03-22T05:02:20.154Z,10.13
2023-03-22T05:02:56.337Z,10.14
2023-03-22T05:03:38.555Z,10.12
2023-03-22T05:04:10.871Z,10.12
2023-03-22T05:04:45.959Z,10.14
2023-03-22T05:05:28.442Z,10.12
2023-03-22T05:06:02.566Z,10.13
2023-03-22T05:06:46.619Z,10.12
2023-03-22T05:07:33.482Z,10.09
2023-03-22T05:08:07.929Z,10.10
2023-03-22T05:08:42.782Z,10.11
2023-03-22T05:09:16.252Z,10.12
2023-03-22T05:09:48.651Z,10.12
2023-03-22T05:10:24.887Z,10.13
2023-03-22T05:10:59.229Z,10.13
2023-03-22T05:11:31.658Z,10.14
2023-03-22T05:12:28.850Z,10.12
2023-03-22T05:13:04.802Z,10.12
2023-03-22T05:13:41.555Z,10.12
2023-03-22T05:14:18.461Z,10.11
2023-03-22T05:14:51.636Z,10.11
2023-03-22T05:15:32.531Z,10.12
2023-03-22T05:16:07.104Z,10.12
2023-03-22T05:16:49.302Z,10.10
2023-03-22T05:17:24.105Z,10.13
2023-03-22T05:17:59.333Z,10.13
2023-03-22T05:18:32.955Z,10.16
2023-03-22T05:19:13.922Z,10.17
2023-03-22T05:19:49.650Z,10.16
2023-03-22T05:20:21.919Z,10.19
2023-03-22T05:21:08.855Z,10.19
2023-03-22T05:21:44.055Z,10.21
2023-03-22T05:22:16.191Z,10.20
2023-03-22T05:22:57.093Z,10.20
2023-03-22T05:23:32.066Z,10.19
2023-03-22T05:24:05.813Z,10.19
2023-03-22T05:24:40.887Z,10.21
2023-03-22T05:25:18.109Z,10.20
2023-03-22T05:25:58.317Z,10.21
2023-03-22T05:26:30.553Z,10.21
2023-03-22T05:27:04.002Z,10.22
2023-03-22T05:27:43.266Z,10.22
2023-03-22T05:28:40.077Z,10.20
2023-03-22T05:29:22.800Z,10.19
2023-03-22T05:30:13.474Z,10.19
2023-03-22T05:30:59.049Z,10.20
2023-03-22T05:31:42.907Z,10.21
2023-03-22T05:32:18.406Z,10.25
2023-03-22T05:33:00.572Z,10.26
2023-03-22T05:33:34.879Z,10.20
2023-03-22T05:34:10.918Z,10.20
2023-03-22T05:34:45.676Z,10.23
2023-03-22T05:35:31.557Z,10.24
2023-03-22T05:36:11.423Z,10.26
2023-03-22T05:36:54.521Z,10.25
2023-03-22T05:37:35.025Z,10.29
2023-03-22T05:38:07.659Z,10.31
2023-03-22T05:38:42.126Z,10.32
2023-03-22T05:39:16.956Z,10.35
2023-03-22T05:39:49.803Z,10.37
2023-03-22T05:40:22.244Z,10.41
2023-03-22T05:40:57.465Z,10.42
2023-03-22T05:41:31.837Z,10.44
2023-03-22T05:42:04.310Z,10.45
2023-03-22T05:42:42.840Z,10.45
2023-03-22T05:43:22.646Z,10.44
2023-03-22T05:43:56.255Z,10.44
2023-03-22T05:44:31.563Z,10.46
2023-03-22T05:45:11.954Z,10.46
2023-03-22T05:45:48.170Z,10.46
2023-03-22T05:46:38.677Z,10.45
2023-03-22T05:47:31.372Z,10.41
2023-03-22T05:48:10.843Z,10.40
2023-03-22T05:48:43.146Z,10.44
2023-03-22T05:49:18.502Z,10.47
2023-03-22T05:49:50.734Z,10.48
2023-03-22T05:50:24.898Z,10.51
2023-03-22T05:50:59.637Z,10.54
2023-03-22T05:51:41.520Z,10.56
2023-03-22T05:52:15.427Z,10.55
2023-03-22T05:53:00.121Z,10.56
2023-03-22T05:53:38.338Z,10.56
2023-03-22T05:54:15.487Z,10.58
2023-03-22T05:54:56.905Z,10.59
2023-03-22T05:55:32.091Z,10.59
2023-03-22T05:56:10.135Z,10.61
2023-03-22T05:56:44.460Z,10.62
2023-03-22T05:57:17.126Z,10.64
2023-03-22T05:57:54.890Z,10.65
2023-03-22T05:58:29.051Z,10.65
2023-03-22T05:59:01.549Z,10.66
2023-03-22T05:59:36.534Z,10.67
2023-03-22T06:00:13.414Z,10.68
2023-03-22T06:00:50.031Z,10.67
2023-03-22T06:01:31.528Z,10.64
2023-03-22T06:02:32.522Z,10.62
2023-03-22T06:03:05.451Z,10.63
2023-03-22T06:03:45.769Z,10.64
2023-03-22T06:04:25.886Z,10.63
2023-03-22T06:05:11.029Z,10.65
2023-03-22T06:05:46.714Z,10.67
2023-03-22T06:06:19.267Z,10.70
2023-03-22T06:07:07.799Z,10.69
2023-03-22T06:07:45.966Z,10.70
2023-03-22T06:08:23.181Z,10.71
2023-03-22T06:09:10.629Z,10.75
2023-03-22T06:09:50.235Z,10.75
2023-03-22T06:10:29.601Z,10.78
2023-03-22T06:11:01.945Z,10.81
2023-03-22T06:11:35.510Z,10.85
2023-03-22T06:12:12.848Z,10.87
2023-03-22T06:12:45.676Z,10.88
2023-03-22T06:13:31.611Z,10.88
2023-03-22T06:14:03.994Z,10.90
2023-03-22T06:14:53.278Z,10.92
2023-03-22T06:15:46.072Z,10.93
2023-03-22T06:16:27.983Z,10.95
2023-03-22T06:17:00.149Z,10.98
2023-03-22T06:17:32.331Z,11.01
2023-03-22T06:18:07.235Z,11.06
2023-03-22T06:18:44.354Z,11.10
2023-03-22T06:19:20.612Z,11.12
2023-03-22T06:19:54.470Z,11.12
2023-03-22T06:20:26.934Z,11.14
2023-03-22T06:21:08.935Z,11.12
2023-03-22T06:21:42.556Z,11.13
2023-03-22T06:22:17.346Z,11.12
2023-03-22T06:22:49.788Z,11.14
2023-03-22T06:23:25.406Z,11.15
2023-03-22T06:23:58.212Z,11.15
2023-03-22T06:24:30.622Z,11.14
2023-03-22T06:25:05.872Z,11.15
2023-03-22T06:25:43.808Z,11.15
2023-03-22T06:26:19.321Z,11.16
2023-03-22T06:26:51.670Z,11.19
2023-03-22T06:27:23.816Z,11.21
2023-03-22T06:27:58.931Z,11.24
2023-03-22T06:28:33.830Z,11.27
2023-03-22T06:29:07.758Z,11.29
2023-03-22T06:29:42.785Z,11.32
2023-03-22T06:30:15.735Z,11.34
2023-03-22T06:31:11.691Z,11.33
2023-03-22T06:31:52.586Z,11.34
2023-03-22T06:32:26.744Z,11.38
2023-03-22T06:33:05.240Z,11.40
2023-03-22T06:33:40.518Z,11.41
2023-03-22T06:34:24.603Z,11.43
2023-03-22T06:34:59.687Z,11.46
2023-03-22T06:35:32.502Z,11.47
2023-03-22T06:36:08.055Z,11.48
2023-03-22T06:36:54.576Z,11.46
2023-03-22T06:37:38.430Z,11.46
2023-03-22T06:38:13.542Z,11.49
2023-03-22T06:38:45.931Z,11.50
2023-03-22T06:39:20.688Z,11.51
2023-03-22T06:39:55.221Z,11.53
2023-03-22T06:40:30.473Z,11.54
2023-03-22T06:41:05.300Z,11.54
2023-03-22T06:41:37.492Z,11.55
2023-03-22T06:42:10.697Z,11.56
2023-03-22T06:42:45.652Z,11.58
2023-03-22T06:43:21.303Z,11.58
2023-03-22T06:43:58.195Z,11.60
2023-03-22T06:45:05.355Z,11.57
2023-03-22T06:45:40.910Z,11.59
2023-03-22T06:46:13.764Z,11.62
2023-03-22T06:46:55.011Z,11.61
2023-03-22T06:47:45.740Z,11.61
2023-03-22T06:48:45.681Z,11.58
2023-03-22T06:49:21.975Z,11.55
2023-03-22T06:49:56.780Z,11.56
2023-03-22T06:50:39.954Z,11.57
2023-03-22T06:51:18.630Z,11.60
2023-03-22T06:51:51.622Z,11.62
2023-03-22T06:52:26.984Z,11.64
2023-03-22T06:52:59.188Z,11.66
2023-03-22T06:53:33.948Z,11.67
2023-03-22T06:54:07.291Z,11.67
2023-03-22T06:54:39.608Z,11.67
2023-03-22T06:55:14.405Z,11.68
2023-03-22T06:55:46.567Z,11.66
2023-03-22T06:56:31.189Z,11.69
2023-03-22T06:57:03.752Z,11.73
2023-03-22T06:57:35.942Z,11.76
2023-03-22T06:58:10.615Z,11.82
2023-03-22T06:58:42.775Z,11.84
2023-03-22T06:59:17.493Z,11.88
2023-03-22T06:59:52.410Z,11.92
2023-03-22T07:00:24.965Z,11.95
2023-03-22T07:01:00.022Z,11.96
2023-03-22T07:01:34.176Z,11.95
2023-03-22T07:02:06.751Z,11.97
2023-03-22T07:02:41.488Z,11.97
2023-03-22T07:03:36.534Z,11.94
2023-03-22T07:04:17.029Z,11.96
2023-03-22T07:04:54.178Z,11.98
2023-03-22T07:05:26.292Z,11.99
2023-03-22T07:06:04.177Z,12.03
2023-03-22T07:06:38.193Z,12.04
2023-03-22T07:07:10.458Z,12.05
2023-03-22T07:07:45.172Z,12.06
2023-03-22T07:08:17.398Z,12.08
2023-03-22T07:08:54.408Z,12.09
2023-03-22T07:09:34.513Z,12.09
2023-03-22T07:10:08.406Z,12.10
2023-03-22T07:10:40.668Z,12.11
2023-03-22T07:11:15.646Z,12.14
2023-03-22T07:11:51.289Z,12.14
2023-03-22T07:12:23.683Z,12.16
2023-03-22T07:12:58.901Z,12.18
2023-03-22T07:13:31.056Z,12.19
2023-03-22T07:14:07.458Z,12.18
2023-03-22T07:15:08.468Z,12.13
2023-03-22T07:16:00.701Z,12.09
2023-03-22T07:16:42.555Z,12.10
2023-03-22T07:17:15.815Z,12.12
2023-03-22T07:17:48.725Z,12.14
2023-03-22T07:18:23.449Z,12.18
2023-03-22T07:18:56.050Z,12.20
2023-03-22T07:19:28.656Z,12.23
2023-03-22T07:20:04.510Z,12.28
2023-03-22T07:20:38.771Z,12.35
2023-03-22T07:21:11.434Z,12.41
2023-03-22T07:21:48.952Z,12.44
2023-03-22T07:22:22.526Z,12.47
2023-03-22T07:22:57.411Z,12.48
2023-03-22T07:23:35.760Z,12.51
2023-03-22T07:24:13.803Z,12.54
2023-03-22T07:24:56.194Z,12.59
2023-03-22T07:25:34.470Z,12.61
2023-03-22T07:26:19.729Z,12.63
2023-03-22T07:26:57.100Z,12.69
2023-03-22T07:27:32.816Z,12.73
2023-03-22T07:28:10.561Z,12.76
2023-03-22T07:28:44.721Z,12.80
2023-03-22T07:29:21.582Z,12.82
2023-03-22T07:29:54.285Z,12.87
2023-03-22T07:30:29.285Z,12.89
2023-03-22T07:31:05.718Z,12.92
2023-03-22T07:31:48.613Z,12.97
2023-03-22T07:32:36.518Z,13.00
2023-03-22T07:33:15.075Z,13.02
2023-03-22T07:33:48.582Z,13.05
2023-03-22T07:34:24.024Z,13.08
2023-03-22T07:35:21.936Z,13.01
2023-03-22T07:35:56.939Z,13.04
2023-03-22T07:36:29.881Z,13.04
2023-03-22T07:37:06.014Z,13.03
2023-03-22T07:37:38.259Z,13.02
2023-03-22T07:38:15.897Z,13.00
2023-03-22T07:38:48.445Z,12.99
2023-03-22T07:39:29.085Z,12.96
2023-03-22T07:40:01.317Z,12.94
2023-03-22T07:40:37.053Z,12.95
2023-03-22T07:41:14.231Z,12.97
2023-03-22T07:42:07.011Z,12.96
2023-03-22T07:43:01.180Z,12.94
2023-03-22T07:44:00.211Z,12.85
2023-03-22T07:44:47.522Z,12.81
2023-03-22T07:45:28.770Z,12.81
2023-03-22T07:46:23.910Z,12.85
2023-03-22T07:47:40.725Z,12.87
2023-03-22T07:48:31.721Z,12.90
2023-03-22T07:49:30.334Z,12.87
2023-03-22T07:50:19.361Z,12.85
2023-03-22T07:50:59.044Z,12.88
2023-03-22T07:51:32.245Z,12.89
2023-03-22T07:52:04.940Z,12.92
2023-03-22T07:52:40.113Z,12.92
2023-03-22T07:53:13.874Z,12.91
2023-03-22T07:53:46.171Z,12.89
2023-03-22T07:54:33.055Z,12.86
2023-03-22T07:55:09.341Z,12.80
2023-03-22T07:55:45.002Z,12.80
2023-03-22T07:56:17.175Z,12.80
2023-03-22T07:56:49.602Z,12.83
2023-03-22T07:57:24.321Z,12.88
2023-03-22T07:58:03.782Z,12.91
2023-03-22T07:58:36.513Z,12.93
2023-03-22T07:59:11.693Z,12.93
2023-03-22T07:59:46.759Z,12.92
2023-03-22T08:00:20.632Z,12.91
2023-03-22T08:01:10.980Z,12.88
2023-03-22T08:02:01.526Z,12.87
2023-03-22T08:02:46.126Z,12.90
2023-03-22T08:03:33.060Z,12.92
2023-03-22T08:04:13.048Z,12.94
2023-03-22T08:05:03.954Z,12.92
2023-03-22T08:05:44.929Z,12.93
2023-03-22T08:06:21.655Z,12.94
2023-03-22T08:07:00.133Z,12.96
2023-03-22T08:07:33.545Z,12.97
2023-03-22T08:08:06.634Z,12.99
2023-03-22T08:08:41.729Z,13.01
2023-03-22T08:09:13.947Z,13.04
2023-03-22T08:09:49.649Z,13.08
2023-03-22T08:10:22.025Z,13.08
2023-03-22T08:10:54.154Z,13.08
2023-03-22T08:11:28.847Z,13.09
2023-03-22T08:12:01.022Z,13.09
2023-03-22T08:12:33.452Z,13.11
2023-03-22T08:13:16.939Z,13.11
2023-03-22T08:13:49.123Z,13.14
2023-03-22T08:14:27.491Z,13.16